e-Mail: Password: Lost your password? Click here. - Register a new user

c h a v e z j u a r e z . c o m

Weather - Tiempo - Wetter - Temps

METAR DATA MMMX (Mexico City)

Mexico City / Licenci, Mexico (MMMX) 19-26N 099-06W
Sep 30, 2020 - 09:45 PM EDT / 2020.10.01 0145 UTC
Wind: from the N (010 degrees) at 12 MPH (10 KT):0
Visibility: 10 mile(s):0
Sky conditions: mostly cloudy
Temperature: 66 F (19 C)
Dew Point: 42 F (6 C)
Relative Humidity: 42%
Pressure (altimeter): 30.33 in. Hg (1027 hPa)
ob: MMMX 010145Z 01010KT 10SM SCT020 BKN080 19/06 A3033 NOSIG RMK 8/430 HZY
cycle: 2

Mexico City

St. Prex




Current weather alarms for Switzerland


www.wetteralarm.ch